Time;durP1;ratioP1;P1;durP2;ratioP2;P2;SDS_P1;SDS_P2;PMS_P1;PMS_P2;Temp;Humidity;BMP_temperature;BMP_pressure;BME280_temperature;BME280_humidity;BME280_pressure;Samples;Min_cycle;Max_cycle;Signal;HPM_P1;HPM_P2
2022/08/09 00:02:06;;;;;;;;;;;15.90;68.90;;;;;;4950279;29;19965;-88
2022/08/09 00:04:32;;;;;;;;;;;15.90;69.50;;;;;;4951698;28;19951;-88
2022/08/09 00:06:58;;;;;;;;;;;15.80;69.50;;;;;;4946648;28;19917;-88
2022/08/09 00:09:24;;;;;;;;;;;15.80;69.70;;;;;;4948570;28;19989;-87
2022/08/09 00:11:49;;;;;;;;;;;15.80;69.70;;;;;;4921791;28;20325;-87
2022/08/09 00:14:15;;;;;;;;;;;15.80;69.20;;;;;;4933590;29;20368;-87
2022/08/09 00:16:41;;;;;;;;;;;15.70;69.50;;;;;;4926125;29;19915;-86
2022/08/09 00:19:08;;;;;;;;;;;15.70;69.90;;;;;;4931739;29;19918;-85
2022/08/09 00:21:33;;;;;;;;;;;15.70;69.60;;;;;;4944403;29;20000;-86
2022/08/09 00:23:59;;;;;;;;;;;15.70;70.00;;;;;;4944010;28;20575;-85
2022/08/09 00:26:25;;;;;;;;;;;15.70;69.90;;;;;;4932370;29;19915;-86
2022/08/09 00:28:51;;;;;;;;;;;15.60;70.30;;;;;;4942982;29;19998;-86
2022/08/09 00:31:16;;;;;;;;;;;15.60;70.40;;;;;;4917344;29;19911;-86
2022/08/09 00:33:42;;;;;;;;;;;15.60;70.60;;;;;;4933620;29;19937;-87
2022/08/09 00:36:08;;;;;;;;;;;15.50;70.50;;;;;;4955720;28;19953;-87
2022/08/09 00:38:34;;;;;;;;;;;15.50;71.10;;;;;;4928489;29;19997;-86
2022/08/09 00:40:59;;;;;;;;;;;15.50;71.10;;;;;;4936540;29;19917;-88
2022/08/09 00:43:25;;;;;;;;;;;15.50;71.20;;;;;;4937430;29;20383;-87
2022/08/09 00:45:51;;;;;;;;;;;15.40;71.10;;;;;;4934840;29;19915;-87
2022/08/09 00:48:16;;;;;;;;;;;15.40;71.10;;;;;;4926456;29;19911;-86
2022/08/09 00:50:42;;;;;;;;;;;15.40;71.30;;;;;;4934871;28;20001;-86
2022/08/09 00:53:08;;;;;;;;;;;15.40;71.10;;;;;;4947811;28;20508;-86
2022/08/09 00:55:34;;;;;;;;;;;15.40;71.00;;;;;;4935763;28;19961;-87
2022/08/09 00:57:59;;;;;;;;;;;15.40;71.10;;;;;;4949856;29;19922;-87
2022/08/09 01:00:26;;;;;;;;;;;15.30;70.80;;;;;;4934155;29;20610;-87
2022/08/09 01:02:59;;;;;;;;;;;15.30;71.10;;;;;;4933229;29;19915;-87
2022/08/09 01:05:41;;;;;;;;;;;15.30;72.10;;;;;;4933000;29;19917;-87
2022/08/09 01:08:12;;;;;;;;;;;15.30;73.50;;;;;;4931053;29;19910;-85
2022/08/09 01:10:53;;;;;;;;;;;15.20;72.60;;;;;;4947191;28;19922;-85
2022/08/09 01:13:24;;;;;;;;;;;15.20;73.00;;;;;;4946433;28;19961;-85
2022/08/09 01:15:51;;;;;;;;;;;15.10;73.10;;;;;;4952563;28;20291;-84
2022/08/09 01:18:19;;;;;;;;;;;15.10;73.60;;;;;;4948299;28;19933;-84
2022/08/09 01:20:54;;;;;;;;;;;15.00;73.50;;;;;;4917904;29;20025;-84
2022/08/09 01:23:32;;;;;;;;;;;15.00;74.50;;;;;;4946775;28;19911;-85
2022/08/09 01:26:07;;;;;;;;;;;14.90;75.10;;;;;;4935250;28;20044;-85
2022/08/09 01:28:34;;;;;;;;;;;14.90;75.60;;;;;;4936965;29;19917;-83
2022/08/09 01:31:02;;;;;;;;;;;14.80;75.10;;;;;;4951225;28;20371;-85
2022/08/09 01:33:31;;;;;;;;;;;14.90;75.40;;;;;;4931017;29;19918;-85
2022/08/09 01:36:03;;;;;;;;;;;14.90;75.10;;;;;;4934119;28;19910;-84
2022/08/09 01:38:30;;;;;;;;;;;14.80;74.60;;;;;;4936730;29;19911;-84
2022/08/09 01:41:00;;;;;;;;;;;14.80;75.00;;;;;;4935214;29;19906;-84
2022/08/09 01:43:26;;;;;;;;;;;14.70;74.80;;;;;;4950121;28;19997;-84
2022/08/09 01:45:53;;;;;;;;;;;14.80;74.60;;;;;;4934393;29;19922;-84
2022/08/09 01:48:19;;;;;;;;;;;14.80;74.50;;;;;;4934386;29;19937;-85
2022/08/09 01:50:49;;;;;;;;;;;14.80;74.60;;;;;;4936051;29;19914;-85
2022/08/09 01:53:16;;;;;;;;;;;14.80;74.70;;;;;;4929120;28;20395;-84
2022/08/09 01:55:42;;;;;;;;;;;14.80;74.40;;;;;;4919838;29;19914;-85
2022/08/09 01:58:08;;;;;;;;;;;14.80;74.50;;;;;;4950510;28;19992;-85
2022/08/09 02:00:34;;;;;;;;;;;14.80;74.90;;;;;;4934308;29;19918;-85
2022/08/09 02:03:00;;;;;;;;;;;14.70;74.50;;;;;;4946941;29;19922;-85
2022/08/09 02:05:26;;;;;;;;;;;14.70;74.70;;;;;;4916755;29;20688;-85
2022/08/09 02:07:58;;;;;;;;;;;14.70;75.10;;;;;;4914634;29;19940;-85
2022/08/09 02:10:31;;;;;;;;;;;14.70;75.70;;;;;;4933334;29;20345;-85
2022/08/09 02:13:02;;;;;;;;;;;14.60;76.50;;;;;;4933890;29;20684;-84
2022/08/09 02:15:31;;;;;;;;;;;14.60;76.60;;;;;;4942137;28;21324;-85
2022/08/09 02:17:58;;;;;;;;;;;14.60;75.80;;;;;;4964452;28;19968;-83
2022/08/09 02:20:25;;;;;;;;;;;14.50;76.60;;;;;;4934032;29;19946;-85
2022/08/09 02:22:53;;;;;;;;;;;14.50;75.90;;;;;;4944630;29;19921;-84
2022/08/09 02:25:24;;;;;;;;;;;14.50;75.80;;;;;;4932247;29;19954;-85
2022/08/09 02:27:52;;;;;;;;;;;14.40;76.80;;;;;;4934033;29;19910;-84
2022/08/09 02:30:18;;;;;;;;;;;14.40;76.70;;;;;;4934070;29;19964;-83
2022/08/09 02:32:44;;;;;;;;;;;14.40;76.70;;;;;;4933345;29;19961;-85
2022/08/09 02:35:14;;;;;;;;;;;14.40;76.90;;;;;;4933467;28;20210;-85
2022/08/09 02:37:41;;;;;;;;;;;14.30;77.10;;;;;;4930902;29;19911;-84
2022/08/09 02:40:09;;;;;;;;;;;14.20;77.50;;;;;;4915084;29;19918;-86
2022/08/09 02:42:39;;;;;;;;;;;14.20;78.30;;;;;;4931941;29;20225;-85
2022/08/09 02:45:11;;;;;;;;;;;14.20;78.30;;;;;;4914602;29;20531;-85
2022/08/09 02:47:39;;;;;;;;;;;14.20;77.80;;;;;;4914922;29;20439;-85
2022/08/09 02:50:13;;;;;;;;;;;14.10;78.00;;;;;;4930731;28;19915;-85
2022/08/09 02:52:40;;;;;;;;;;;14.10;77.60;;;;;;4930335;29;19919;-85
2022/08/09 02:55:07;;;;;;;;;;;14.10;77.90;;;;;;4931946;29;20394;-85
2022/08/09 02:57:33;;;;;;;;;;;14.10;78.20;;;;;;4951705;28;20442;-85
2022/08/09 03:00:00;;;;;;;;;;;14.10;78.50;;;;;;4945208;28;20405;-86
2022/08/09 03:02:28;;;;;;;;;;;14.00;78.40;;;;;;4933809;29;19930;-85
2022/08/09 03:04:54;;;;;;;;;;;13.90;78.90;;;;;;4898006;29;20549;-85
2022/08/09 03:07:20;;;;;;;;;;;13.90;79.40;;;;;;4944504;29;19911;-86
2022/08/09 03:09:47;;;;;;;;;;;13.90;80.00;;;;;;4930427;29;19974;-85
2022/08/09 03:12:14;;;;;;;;;;;13.80;79.70;;;;;;4933565;29;20640;-84
2022/08/09 03:14:40;;;;;;;;;;;13.80;80.00;;;;;;4914894;28;19922;-85
2022/08/09 03:17:06;;;;;;;;;;;13.80;80.40;;;;;;4927377;29;19942;-85
2022/08/09 03:19:32;;;;;;;;;;;13.80;80.60;;;;;;4930291;29;19954;-86
2022/08/09 03:21:58;;;;;;;;;;;13.70;80.60;;;;;;4946075;29;20569;-85
2022/08/09 03:24:24;;;;;;;;;;;13.70;80.70;;;;;;4932938;28;20361;-85
2022/08/09 03:26:50;;;;;;;;;;;13.70;80.40;;;;;;4939172;29;19915;-85
2022/08/09 03:29:16;;;;;;;;;;;13.70;80.40;;;;;;4949755;28;19921;-85
2022/08/09 03:31:42;;;;;;;;;;;13.60;80.20;;;;;;4936784;28;19911;-84
2022/08/09 03:34:09;;;;;;;;;;;13.60;80.30;;;;;;4929733;29;20005;-85
2022/08/09 03:36:35;;;;;;;;;;;13.70;79.90;;;;;;4941163;28;19921;-85
2022/08/09 03:39:02;;;;;;;;;;;13.70;80.20;;;;;;4918137;29;20049;-86
2022/08/09 03:41:28;;;;;;;;;;;13.70;80.20;;;;;;4937432;28;19915;-84
2022/08/09 03:43:53;;;;;;;;;;;13.60;80.40;;;;;;4929676;29;19926;-84
2022/08/09 03:46:19;;;;;;;;;;;13.60;80.50;;;;;;4948659;28;19914;-85
2022/08/09 03:48:47;;;;;;;;;;;13.60;80.70;;;;;;4936639;29;20524;-84
2022/08/09 03:51:13;;;;;;;;;;;13.60;80.60;;;;;;4941972;29;19910;-85
2022/08/09 03:53:39;;;;;;;;;;;13.60;81.10;;;;;;4945332;28;19921;-85
2022/08/09 03:56:05;;;;;;;;;;;13.60;81.70;;;;;;4941769;28;19961;-84
2022/08/09 03:58:31;;;;;;;;;;;13.50;81.00;;;;;;4933734;29;19914;-85
2022/08/09 04:00:57;;;;;;;;;;;13.50;81.00;;;;;;4933448;29;20423;-86
2022/08/09 04:03:23;;;;;;;;;;;13.50;81.10;;;;;;4948767;28;19969;-86
2022/08/09 04:05:49;;;;;;;;;;;13.50;81.20;;;;;;4934955;28;19911;-85
2022/08/09 04:08:14;;;;;;;;;;;13.50;81.50;;;;;;4917461;29;19930;-83
2022/08/09 04:10:40;;;;;;;;;;;13.50;82.60;;;;;;4953702;28;19918;-83
2022/08/09 04:13:09;;;;;;;;;;;13.50;82.20;;;;;;4925310;29;19919;-84
2022/08/09 04:15:35;;;;;;;;;;;13.50;82.50;;;;;;4936424;28;19945;-85
2022/08/09 04:18:01;;;;;;;;;;;13.40;82.70;;;;;;4936402;28;19938;-83
2022/08/09 04:20:27;;;;;;;;;;;13.40;83.40;;;;;;4930089;28;19922;-84
2022/08/09 04:22:52;;;;;;;;;;;13.40;83.70;;;;;;4951547;29;19914;-84
2022/08/09 04:25:18;;;;;;;;;;;13.40;83.70;;;;;;4933996;29;19969;-84
2022/08/09 04:27:43;;;;;;;;;;;13.40;84.40;;;;;;4935334;29;20382;-84
2022/08/09 04:30:10;;;;;;;;;;;13.40;84.60;;;;;;4936277;28;20615;-83
2022/08/09 04:32:36;;;;;;;;;;;13.40;84.80;;;;;;4916854;29;19919;-86
2022/08/09 04:35:01;;;;;;;;;;;13.40;85.90;;;;;;4931523;29;19942;-85
2022/08/09 04:37:27;;;;;;;;;;;13.40;86.50;;;;;;4935993;28;19911;-84
2022/08/09 04:39:53;;;;;;;;;;;13.50;86.50;;;;;;4920109;28;19950;-85
2022/08/09 04:42:19;;;;;;;;;;;13.40;87.10;;;;;;4932741;28;19910;-85
2022/08/09 04:44:45;;;;;;;;;;;13.50;87.90;;;;;;4902366;29;19915;-85
2022/08/09 04:47:10;;;;;;;;;;;13.50;87.30;;;;;;4929678;29;19921;-85
2022/08/09 04:49:36;;;;;;;;;;;13.50;87.50;;;;;;4948788;29;19922;-83
2022/08/09 04:52:03;;;;;;;;;;;13.50;87.40;;;;;;4917087;28;19914;-84
2022/08/09 04:54:29;;;;;;;;;;;13.60;87.30;;;;;;4947584;28;20009;-85
2022/08/09 04:56:55;;;;;;;;;;;13.60;88.10;;;;;;4951142;28;20005;-86
2022/08/09 04:59:20;;;;;;;;;;;13.60;88.40;;;;;;4950462;28;20312;-85
2022/08/09 05:01:46;;;;;;;;;;;13.70;88.60;;;;;;4951287;28;20358;-85
2022/08/09 05:04:12;;;;;;;;;;;13.70;88.40;;;;;;4950714;28;20154;-82
2022/08/09 05:06:37;;;;;;;;;;;13.70;87.90;;;;;;4936200;29;19918;-84
2022/08/09 05:09:03;;;;;;;;;;;13.80;88.10;;;;;;4951234;28;20342;-85
2022/08/09 05:11:29;;;;;;;;;;;13.80;87.40;;;;;;4942520;29;19945;-84
2022/08/09 05:13:55;;;;;;;;;;;13.90;87.70;;;;;;4927535;28;19919;-84
2022/08/09 05:16:21;;;;;;;;;;;14.00;88.30;;;;;;4923617;29;20031;-85
2022/08/09 05:18:46;;;;;;;;;;;14.10;89.30;;;;;;4931969;28;20284;-85
2022/08/09 05:21:12;;;;;;;;;;;14.10;88.60;;;;;;4937436;29;19922;-86
2022/08/09 05:23:38;;;;;;;;;;;14.20;88.10;;;;;;4931590;29;19915;-84
2022/08/09 05:26:03;;;;;;;;;;;14.30;88.60;;;;;;4931251;29;19918;-84
2022/08/09 05:28:29;;;;;;;;;;;14.40;88.20;;;;;;4928332;29;20291;-84
2022/08/09 05:30:55;;;;;;;;;;;14.50;86.80;;;;;;4937634;29;19919;-84
2022/08/09 05:33:20;;;;;;;;;;;14.70;88.10;;;;;;4931582;29;19926;-85
2022/08/09 05:35:46;;;;;;;;;;;14.80;86.80;;;;;;4934870;28;19917;-85
2022/08/09 05:38:12;;;;;;;;;;;14.90;86.80;;;;;;4963638;28;19974;-85
2022/08/09 05:40:37;;;;;;;;;;;15.10;84.50;;;;;;4934890;29;19990;-84
2022/08/09 05:43:03;;;;;;;;;;;15.40;85.00;;;;;;4931482;29;19926;-84
2022/08/09 05:45:29;;;;;;;;;;;15.70;82.90;;;;;;4917980;29;19918;-86
2022/08/09 05:47:55;;;;;;;;;;;16.20;80.20;;;;;;4934824;29;19973;-85
2022/08/09 05:50:27;;;;;;;;;;;16.60;78.40;;;;;;4933906;29;19933;-85
2022/08/09 05:52:53;;;;;;;;;;;17.10;76.50;;;;;;4934063;29;19925;-84
2022/08/09 05:55:18;;;;;;;;;;;17.60;75.90;;;;;;4965874;28;19910;-84
2022/08/09 05:57:44;;;;;;;;;;;18.00;74.70;;;;;;4932502;29;19911;-85
2022/08/09 06:00:11;;;;;;;;;;;18.50;73.40;;;;;;4934544;28;20339;-84
2022/08/09 06:02:38;;;;;;;;;;;18.90;70.90;;;;;;4915375;29;19917;-84
2022/08/09 06:05:04;;;;;;;;;;;19.30;71.90;;;;;;4902403;29;19921;-86
2022/08/09 06:07:30;;;;;;;;;;;19.70;70.40;;;;;;4950355;28;19910;-83
2022/08/09 06:09:56;;;;;;;;;;;20.10;67.20;;;;;;4938991;28;19921;-86
2022/08/09 06:12:21;;;;;;;;;;;20.50;65.60;;;;;;4920399;28;20018;-84
2022/08/09 06:14:47;;;;;;;;;;;20.90;64.50;;;;;;4947024;29;20021;-84
2022/08/09 06:17:13;;;;;;;;;;;21.40;63.40;;;;;;4937119;28;19921;-83
2022/08/09 06:19:38;;;;;;;;;;;21.80;63.10;;;;;;4934735;28;19922;-83
2022/08/09 06:22:05;;;;;;;;;;;22.10;61.10;;;;;;4918311;28;19922;-84
2022/08/09 06:24:30;;;;;;;;;;;22.50;60.40;;;;;;4930848;29;19911;-85
2022/08/09 06:26:56;;;;;;;;;;;22.80;59.10;;;;;;4942785;29;19921;-84
2022/08/09 06:29:21;;;;;;;;;;;23.20;58.60;;;;;;4931224;29;19926;-84
2022/08/09 06:31:47;;;;;;;;;;;23.50;57.80;;;;;;4950060;28;20338;-84
2022/08/09 06:34:13;;;;;;;;;;;23.80;57.00;;;;;;4902607;28;20235;-84
2022/08/09 06:36:38;;;;;;;;;;;24.10;56.60;;;;;;4907969;29;19950;-85
2022/08/09 06:39:04;;;;;;;;;;;24.40;55.70;;;;;;4902320;28;19921;-85
2022/08/09 06:41:30;;;;;;;;;;;24.90;54.70;;;;;;4922733;29;19922;-84
2022/08/09 06:43:55;;;;;;;;;;;25.30;53.90;;;;;;4901153;29;19930;-85
2022/08/09 06:46:21;;;;;;;;;;;25.70;52.90;;;;;;4921444;29;19922;-84
2022/08/09 06:48:47;;;;;;;;;;;26.20;52.20;;;;;;4932654;28;20423;-87
2022/08/09 06:51:12;;;;;;;;;;;26.70;51.20;;;;;;4930836;28;19958;-85
2022/08/09 06:53:38;;;;;;;;;;;27.00;49.80;;;;;;4930339;29;19934;-83
2022/08/09 06:56:05;;;;;;;;;;;27.20;48.90;;;;;;4921859;29;20429;-82
2022/08/09 06:58:30;;;;;;;;;;;27.40;48.30;;;;;;4947346;28;19957;-84
2022/08/09 07:00:56;;;;;;;;;;;27.60;47.20;;;;;;4902791;29;20002;-83
2022/08/09 07:03:22;;;;;;;;;;;27.70;47.70;;;;;;4930871;28;19921;-84
2022/08/09 07:05:48;;;;;;;;;;;27.90;47.40;;;;;;4936599;29;19917;-84
2022/08/09 07:08:14;;;;;;;;;;;28.10;47.40;;;;;;4950020;28;19919;-85
2022/08/09 07:10:39;;;;;;;;;;;28.30;47.30;;;;;;4949375;29;19911;-85
2022/08/09 07:13:05;;;;;;;;;;;28.50;46.20;;;;;;4933609;29;19929;-84
2022/08/09 07:15:31;;;;;;;;;;;28.50;45.30;;;;;;4933658;29;19918;-83
2022/08/09 07:17:56;;;;;;;;;;;28.50;45.70;;;;;;4950365;28;19915;-83
2022/08/09 07:20:22;;;;;;;;;;;28.60;44.40;;;;;;4951437;29;20425;-83
2022/08/09 07:22:48;;;;;;;;;;;28.70;43.90;;;;;;4936577;29;20037;-84
2022/08/09 07:25:14;;;;;;;;;;;28.70;44.00;;;;;;4938301;29;19973;-83
2022/08/09 07:27:40;;;;;;;;;;;28.60;44.40;;;;;;4922155;29;19937;-83
2022/08/09 07:30:06;;;;;;;;;;;28.70;45.10;;;;;;4953924;29;19962;-83
2022/08/09 07:32:32;;;;;;;;;;;28.90;44.60;;;;;;4962033;28;19948;-83
2022/08/09 07:34:58;;;;;;;;;;;28.60;43.90;;;;;;4950694;28;19964;-84
2022/08/09 07:37:23;;;;;;;;;;;28.60;44.70;;;;;;4954167;28;19921;-83
2022/08/09 07:39:49;;;;;;;;;;;28.90;44.50;;;;;;4937839;29;19914;-84
2022/08/09 07:42:14;;;;;;;;;;;28.70;43.70;;;;;;4921255;29;20292;-83
2022/08/09 07:44:40;;;;;;;;;;;28.90;44.00;;;;;;4933890;29;19937;-83
2022/08/09 07:47:06;;;;;;;;;;;29.00;41.70;;;;;;4949697;29;20362;-85
2022/08/09 07:49:31;;;;;;;;;;;28.80;42.70;;;;;;4954322;28;19910;-83
2022/08/09 07:51:57;;;;;;;;;;;28.60;42.80;;;;;;4937989;29;19924;-84
2022/08/09 07:54:26;;;;;;;;;;;28.50;43.50;;;;;;4948977;29;19965;-84
2022/08/09 07:56:52;;;;;;;;;;;28.40;43.30;;;;;;4937915;29;20483;-83
2022/08/09 07:59:19;;;;;;;;;;;28.40;43.00;;;;;;4969150;28;19910;-83
2022/08/09 08:01:45;;;;;;;;;;;28.10;43.00;;;;;;4943780;28;19962;-84
2022/08/09 08:04:10;;;;;;;;;;;28.00;44.80;;;;;;4933442;29;20319;-83
2022/08/09 08:06:36;;;;;;;;;;;28.00;43.60;;;;;;4929508;29;19918;-83
2022/08/09 08:09:02;;;;;;;;;;;27.90;44.10;;;;;;4936772;28;19926;-83
2022/08/09 08:11:28;;;;;;;;;;;27.80;44.50;;;;;;4952234;28;20294;-83
2022/08/09 08:13:53;;;;;;;;;;;27.70;45.90;;;;;;4943735;28;20056;-84
2022/08/09 08:16:19;;;;;;;;;;;27.70;45.10;;;;;;4941324;29;19993;-83
2022/08/09 08:18:45;;;;;;;;;;;27.60;44.70;;;;;;4931269;29;20197;-84
2022/08/09 08:21:10;;;;;;;;;;;27.40;45.00;;;;;;4949456;29;20400;-83
2022/08/09 08:23:36;;;;;;;;;;;27.20;45.40;;;;;;4907872;29;19938;-83
2022/08/09 08:26:01;;;;;;;;;;;27.00;46.40;;;;;;4940131;29;19915;-83
2022/08/09 08:28:27;;;;;;;;;;;26.80;45.90;;;;;;4949030;28;19910;-83
2022/08/09 08:30:53;;;;;;;;;;;26.50;48.10;;;;;;4955213;28;20291;-82
2022/08/09 08:33:19;;;;;;;;;;;26.30;47.90;;;;;;4935962;29;19914;-84
2022/08/09 08:35:45;;;;;;;;;;;26.20;49.20;;;;;;4937871;29;20005;-82
2022/08/09 08:38:12;;;;;;;;;;;26.20;48.40;;;;;;4948108;28;19945;-82
2022/08/09 08:40:37;;;;;;;;;;;26.10;47.80;;;;;;4936946;29;20570;-83
2022/08/09 08:43:03;;;;;;;;;;;26.10;49.40;;;;;;4950670;28;19914;-83
2022/08/09 08:45:34;;;;;;;;;;;26.10;47.80;;;;;;4968164;28;20418;-82
2022/08/09 08:48:00;;;;;;;;;;;26.00;48.00;;;;;;4930364;29;20363;-81
2022/08/09 08:50:26;;;;;;;;;;;26.00;48.40;;;;;;4980205;22;19922;-82
2022/08/09 08:52:52;;;;;;;;;;;26.00;46.40;;;;;;4979393;28;19918;-81
2022/08/09 08:55:18;;;;;;;;;;;25.80;47.50;;;;;;4986993;28;19936;-81
2022/08/09 08:57:44;;;;;;;;;;;25.60;47.60;;;;;;4959864;28;20408;-81
2022/08/09 09:00:10;;;;;;;;;;;25.60;47.70;;;;;;4973122;28;19913;-81
2022/08/09 09:02:37;;;;;;;;;;;25.60;46.90;;;;;;4977458;28;19910;-82
2022/08/09 09:05:03;;;;;;;;;;;25.60;47.20;;;;;;4986129;22;19937;-81
2022/08/09 09:07:31;;;;;;;;;;;25.60;46.80;;;;;;4969718;28;19911;-80
2022/08/09 09:09:57;;;;;;;;;;;25.60;47.70;;;;;;4967067;28;20566;-79
2022/08/09 09:12:28;;;;;;;;;;;25.50;44.70;;;;;;4947588;28;19914;-79
2022/08/09 09:14:55;;;;;;;;;;;25.40;47.00;;;;;;4973212;28;19913;-79
2022/08/09 09:17:21;;;;;;;;;;;25.30;45.30;;;;;;4968786;28;20009;-81
2022/08/09 09:19:47;;;;;;;;;;;25.20;45.10;;;;;;4947292;28;20649;-79
2022/08/09 09:22:15;;;;;;;;;;;25.30;45.70;;;;;;4968353;28;19961;-80
2022/08/09 09:24:48;;;;;;;;;;;25.20;44.90;;;;;;4966546;28;19917;-80
2022/08/09 09:27:26;;;;;;;;;;;25.30;43.80;;;;;;4966439;28;19914;-80
2022/08/09 09:29:53;;;;;;;;;;;25.30;45.50;;;;;;4961030;28;20371;-79
2022/08/09 09:32:23;;;;;;;;;;;25.30;45.20;;;;;;4949348;28;19914;-80
2022/08/09 09:35:00;;;;;;;;;;;25.30;44.60;;;;;;4963398;28;19926;-79
2022/08/09 09:37:27;;;;;;;;;;;25.20;44.40;;;;;;4968813;28;19916;-79
2022/08/09 09:39:53;;;;;;;;;;;25.10;45.40;;;;;;4964129;28;20306;-79
2022/08/09 09:42:23;;;;;;;;;;;25.10;43.90;;;;;;4963994;28;19921;-80
2022/08/09 09:44:53;;;;;;;;;;;25.10;45.40;;;;;;4958379;28;19915;-78
2022/08/09 09:47:20;;;;;;;;;;;25.10;44.60;;;;;;4972031;28;19910;-80
2022/08/09 09:49:49;;;;;;;;;;;25.10;43.60;;;;;;4959570;28;20012;-79
2022/08/09 09:52:15;;;;;;;;;;;25.10;46.20;;;;;;4963811;28;19914;-79
2022/08/09 09:54:48;;;;;;;;;;;25.10;45.40;;;;;;4959322;28;19965;-78
2022/08/09 09:57:20;;;;;;;;;;;25.10;45.00;;;;;;4968560;28;19968;-78
2022/08/09 09:59:47;;;;;;;;;;;25.30;45.70;;;;;;4963013;28;20406;-78
2022/08/09 10:02:13;;;;;;;;;;;25.20;43.70;;;;;;4943982;28;19921;-79
2022/08/09 10:04:39;;;;;;;;;;;25.30;45.10;;;;;;4967567;28;19922;-79
2022/08/09 10:07:05;;;;;;;;;;;25.30;44.00;;;;;;4964012;28;19918;-79
2022/08/09 10:09:47;;;;;;;;;;;25.30;43.90;;;;;;4962137;28;19969;-79
2022/08/09 10:12:21;;;;;;;;;;;25.30;44.40;;;;;;4960346;28;19914;-78
2022/08/09 10:14:47;;;;;;;;;;;25.30;44.30;;;;;;4972909;28;19972;-79
2022/08/09 10:17:13;;;;;;;;;;;25.20;43.90;;;;;;4969869;28;20402;-79
2022/08/09 10:19:38;;;;;;;;;;;25.10;44.10;;;;;;4966540;28;19953;-78
2022/08/09 10:22:04;;;;;;;;;;;25.10;43.00;;;;;;4970112;28;19941;-79
2022/08/09 10:24:30;;;;;;;;;;;25.00;43.50;;;;;;4955785;28;19964;-79
2022/08/09 10:26:56;;;;;;;;;;;25.00;44.30;;;;;;4973217;28;19918;-78
2022/08/09 10:29:22;;;;;;;;;;;25.00;43.70;;;;;;4973119;28;19910;-78
2022/08/09 10:31:48;;;;;;;;;;;25.10;45.20;;;;;;4949359;28;19973;-79
2022/08/09 10:34:14;;;;;;;;;;;25.20;44.50;;;;;;4963269;28;20345;-78
2022/08/09 10:36:41;;;;;;;;;;;25.20;43.80;;;;;;4965092;28;19910;-79
2022/08/09 10:39:06;;;;;;;;;;;25.30;45.80;;;;;;4952985;28;19915;-79
2022/08/09 10:41:33;;;;;;;;;;;25.30;44.60;;;;;;4961524;28;19921;-78
2022/08/09 10:43:59;;;;;;;;;;;25.50;45.60;;;;;;4963060;28;19921;-80
2022/08/09 10:46:37;;;;;;;;;;;25.60;44.40;;;;;;4961642;28;20293;-79
2022/08/09 10:49:20;;;;;;;;;;;25.70;43.00;;;;;;4970393;28;19918;-79
2022/08/09 10:51:49;;;;;;;;;;;25.60;42.30;;;;;;4965903;28;20294;-79
2022/08/09 10:54:21;;;;;;;;;;;25.70;43.30;;;;;;4966188;28;20013;-79
2022/08/09 10:56:47;;;;;;;;;;;25.60;42.00;;;;;;4960832;28;19910;-80
2022/08/09 10:59:25;;;;;;;;;;;25.60;43.60;;;;;;4967631;28;19971;-80
2022/08/09 11:01:51;;;;;;;;;;;25.70;43.60;;;;;;4969680;28;19969;-79
2022/08/09 11:04:19;;;;;;;;;;;25.70;43.90;;;;;;4969201;28;19947;-79
2022/08/09 11:07:05;;;;;;;;;;;25.70;42.70;;;;;;4963386;28;20157;-79
2022/08/09 11:09:37;;;;;;;;;;;25.60;43.70;;;;;;4966405;28;19911;-80
2022/08/09 11:12:10;;;;;;;;;;;25.60;45.40;;;;;;4966563;28;20382;-78
2022/08/09 11:14:40;;;;;;;;;;;25.70;44.60;;;;;;4957216;28;19922;-80
2022/08/09 11:17:26;;;;;;;;;;;25.80;44.50;;;;;;4965281;28;20507;-80
2022/08/09 11:19:53;;;;;;;;;;;25.90;45.20;;;;;;4964474;28;19918;-81
2022/08/09 11:22:19;;;;;;;;;;;26.00;43.00;;;;;;4965443;28;19910;-79
2022/08/09 11:25:06;;;;;;;;;;;26.10;44.50;;;;;;4985914;28;19917;-79
2022/08/09 11:27:43;;;;;;;;;;;26.20;43.50;;;;;;4974419;28;20295;-78
2022/08/09 11:30:29;;;;;;;;;;;26.30;43.20;;;;;;4974269;28;19917;-78
2022/08/09 11:33:04;;;;;;;;;;;26.30;42.70;;;;;;4973752;28;19918;-80
2022/08/09 11:35:42;;;;;;;;;;;26.20;43.30;;;;;;4968643;28;19910;-78
2022/08/09 11:38:14;;;;;;;;;;;26.10;44.20;;;;;;4970253;28;19921;-77
2022/08/09 11:40:39;;;;;;;;;;;26.10;44.30;;;;;;4967816;28;20285;-80
2022/08/09 11:43:05;;;;;;;;;;;26.10;44.70;;;;;;4960532;28;19917;-77
2022/08/09 11:45:39;;;;;;;;;;;26.00;43.90;;;;;;4965797;28;19918;-79
2022/08/09 11:48:10;;;;;;;;;;;26.00;44.80;;;;;;4973274;28;20378;-79
2022/08/09 11:50:55;;;;;;;;;;;25.90;44.10;;;;;;4961436;28;19945;-79
2022/08/09 11:53:22;;;;;;;;;;;26.10;45.00;;;;;;4967820;28;19914;-79
2022/08/09 11:55:48;;;;;;;;;;;26.30;44.50;;;;;;4966510;28;20226;-79
2022/08/09 11:58:14;;;;;;;;;;;26.60;44.00;;;;;;4933105;28;20318;-81
2022/08/09 12:00:49;;;;;;;;;;;26.80;42.80;;;;;;4963984;28;19910;-79
2022/08/09 12:03:15;;;;;;;;;;;26.90;42.40;;;;;;4964425;28;19910;-80
2022/08/09 12:05:41;;;;;;;;;;;26.70;42.60;;;;;;4968379;28;19914;-79
2022/08/09 12:08:08;;;;;;;;;;;26.70;43.60;;;;;;4966400;28;20394;-80
2022/08/09 12:10:34;;;;;;;;;;;26.80;43.90;;;;;;4959782;28;19936;-78
2022/08/09 12:13:00;;;;;;;;;;;26.90;41.80;;;;;;4952851;28;20290;-79
2022/08/09 12:15:26;;;;;;;;;;;26.90;42.20;;;;;;4955497;28;19914;-79
2022/08/09 12:17:52;;;;;;;;;;;26.70;41.60;;;;;;4973895;28;20009;-79
2022/08/09 12:20:19;;;;;;;;;;;26.70;42.70;;;;;;4963054;28;20389;-80
2022/08/09 12:22:45;;;;;;;;;;;26.80;43.30;;;;;;4964572;28;19929;-81
2022/08/09 12:25:11;;;;;;;;;;;26.90;43.40;;;;;;4936065;28;19918;-78
2022/08/09 12:27:37;;;;;;;;;;;27.00;43.30;;;;;;4987981;28;19983;-80
2022/08/09 12:30:03;;;;;;;;;;;27.00;42.10;;;;;;4955940;28;20285;-80
2022/08/09 12:32:29;;;;;;;;;;;27.00;43.10;;;;;;4945249;29;19915;-80
2022/08/09 12:34:59;;;;;;;;;;;27.10;42.50;;;;;;4952239;28;19945;-79
2022/08/09 12:37:35;;;;;;;;;;;27.00;42.80;;;;;;4970507;28;20374;-80
2022/08/09 12:40:06;;;;;;;;;;;27.00;42.50;;;;;;4956064;28;20060;-80
2022/08/09 12:42:31;;;;;;;;;;;27.10;43.50;;;;;;4959557;28;19910;-80
2022/08/09 12:44:57;;;;;;;;;;;27.20;42.20;;;;;;4945742;28;19910;-80
2022/08/09 12:47:23;;;;;;;;;;;27.50;42.50;;;;;;4960315;28;19914;-81
2022/08/09 12:52:41;;;;;;;;;;;27.80;39.90;;;;;;4973327;28;19921;-81
2022/08/09 12:55:08;;;;;;;;;;;27.80;40.50;;;;;;4973435;28;20529;-79
2022/08/09 12:57:38;;;;;;;;;;;27.90;40.10;;;;;;4972319;28;19940;-80
2022/08/09 13:00:11;;;;;;;;;;;28.00;39.50;;;;;;4971030;28;19910;-81
2022/08/09 13:02:52;;;;;;;;;;;28.10;40.10;;;;;;4962677;28;19910;-81
2022/08/09 13:05:17;;;;;;;;;;;28.20;39.80;;;;;;4967107;28;19925;-79
2022/08/09 13:08:02;;;;;;;;;;;28.30;40.20;;;;;;4973106;28;19918;-78
2022/08/09 13:10:27;;;;;;;;;;;28.40;40.70;;;;;;4964398;28;19918;-79
2022/08/09 13:12:53;;;;;;;;;;;28.70;39.20;;;;;;4968177;28;19938;-80
2022/08/09 13:15:19;;;;;;;;;;;28.90;38.80;;;;;;4957637;28;19914;-78
2022/08/09 13:17:44;;;;;;;;;;;29.10;38.80;;;;;;4971261;28;20021;-80
2022/08/09 13:20:10;;;;;;;;;;;29.10;37.40;;;;;;4962265;28;19910;-79
2022/08/09 13:22:46;;;;;;;;;;;29.00;38.30;;;;;;4971993;28;20289;-79
2022/08/09 13:25:11;;;;;;;;;;;29.00;36.90;;;;;;4961154;28;19917;-79
2022/08/09 13:27:38;;;;;;;;;;;28.90;37.30;;;;;;4969612;28;20005;-81
2022/08/09 13:30:08;;;;;;;;;;;28.80;38.10;;;;;;4958015;28;20294;-80
2022/08/09 13:32:42;;;;;;;;;;;28.70;39.50;;;;;;4968200;28;20008;-79
2022/08/09 13:35:09;;;;;;;;;;;28.60;38.60;;;;;;4961684;28;20700;-79
2022/08/09 13:37:34;;;;;;;;;;;28.70;38.10;;;;;;4974064;28;19909;-77
2022/08/09 13:40:01;;;;;;;;;;;28.70;37.70;;;;;;4980524;28;19917;-78
2022/08/09 13:42:26;;;;;;;;;;;28.50;38.60;;;;;;4951115;28;19911;-79
2022/08/09 13:44:52;;;;;;;;;;;28.30;39.50;;;;;;4961057;28;19965;-79
2022/08/09 13:47:18;;;;;;;;;;;28.00;39.20;;;;;;4969189;28;19920;-79
2022/08/09 13:49:44;;;;;;;;;;;27.80;39.70;;;;;;4960512;28;19918;-79
2022/08/09 13:52:10;;;;;;;;;;;27.60;40.10;;;;;;4954888;28;19932;-80
2022/08/09 13:54:36;;;;;;;;;;;27.50;40.40;;;;;;4953126;28;19914;-79
2022/08/09 13:57:02;;;;;;;;;;;27.40;40.60;;;;;;4967293;28;19917;-78
2022/08/09 13:59:28;;;;;;;;;;;27.40;40.30;;;;;;4955419;28;19918;-78
2022/08/09 14:01:53;;;;;;;;;;;27.50;40.00;;;;;;4959618;28;19988;-81
2022/08/09 14:04:19;;;;;;;;;;;27.60;40.80;;;;;;4966511;28;20409;-81
2022/08/09 14:06:58;;;;;;;;;;;27.60;39.60;;;;;;4966244;28;20285;-79
2022/08/09 14:09:24;;;;;;;;;;;27.50;39.80;;;;;;4969857;28;19918;-80
2022/08/09 14:11:50;;;;;;;;;;;27.50;39.30;;;;;;4971839;28;19916;-80
2022/08/09 14:14:16;;;;;;;;;;;27.30;40.30;;;;;;4964163;28;19965;-79
2022/08/09 14:16:42;;;;;;;;;;;27.30;40.30;;;;;;4966180;28;19914;-80
2022/08/09 14:19:08;;;;;;;;;;;27.30;39.80;;;;;;4952376;28;19911;-80
2022/08/09 14:21:34;;;;;;;;;;;27.30;40.90;;;;;;4968755;28;19918;-78